Time;durP1;ratioP1;P1;durP2;ratioP2;P2;SDS_P1;SDS_P2;PMS_P1;PMS_P2;Temp;Humidity;BMP_temperature;BMP_pressure;BME280_temperature;BME280_humidity;BME280_pressure;Samples;Min_cycle;Max_cycle;Signal;HPM_P1;HPM_P2
2022/12/12 00:00:53;;;;;;;22.47;15.23;;;;;;;;;;5064249;28;20201;-88
2022/12/12 00:03:29;;;;;;;9.07;8.10;;;;;;;;;;5092376;28;20236;-88
2022/12/12 00:06:02;;;;;;;5.57;5.07;;;;;;;;;;5075702;28;20204;-88
2022/12/12 00:08:30;;;;;;;23.40;15.83;;;;;;;;;;5092880;28;20234;-88
2022/12/12 00:10:59;;;;;;;25.40;16.53;;;;;;;;;;5082400;28;20252;-87
2022/12/12 00:13:27;;;;;;;25.37;15.10;;;;;;;;;;5078629;28;20197;-88
2022/12/12 00:15:55;;;;;;;22.20;15.80;;;;;;;;;;5075218;28;20198;-88
2022/12/12 00:18:24;;;;;;;24.40;17.47;;;;;;;;;;5074528;28;20208;-88
2022/12/12 00:20:54;;;;;;;21.57;15.77;;;;;;;;;;5093183;28;20250;-88
2022/12/12 00:23:23;;;;;;;27.60;20.40;;;;;;;;;;5074648;28;20197;-87
2022/12/12 00:25:55;;;;;;;28.67;20.87;;;;;;;;;;5074727;28;20196;-87
2022/12/12 00:28:24;;;;;;;29.17;18.87;;;;;;;;;;5063060;28;20205;-88
2022/12/12 00:30:52;;;;;;;11.77;9.73;;;;;;;;;;5091682;28;20197;-88
2022/12/12 00:33:21;;;;;;;26.03;18.60;;;;;;;;;;5073381;28;20218;-88
2022/12/12 00:35:50;;;;;;;27.77;18.73;;;;;;;;;;5070574;28;20200;-88
2022/12/12 00:38:20;;;;;;;28.20;17.57;;;;;;;;;;5093016;28;20267;-88
2022/12/12 00:40:49;;;;;;;19.90;13.70;;;;;;;;;;5092627;28;20210;-88
2022/12/12 00:43:17;;;;;;;26.97;17.80;;;;;;;;;;5092907;28;20204;-88
2022/12/12 00:45:46;;;;;;;31.70;21.20;;;;;;;;;;5073414;28;20227;-88
2022/12/12 00:48:14;;;;;;;28.40;21.33;;;;;;;;;;5092743;28;20224;-88
2022/12/12 00:50:42;;;;;;;29.83;21.33;;;;;;;;;;5075235;28;20221;-88
2022/12/12 00:53:12;;;;;;;31.03;20.57;;;;;;;;;;5074925;28;20197;-88
2022/12/12 00:55:41;;;;;;;24.13;17.97;;;;;;;;;;5087385;28;20198;-88
2022/12/12 00:58:10;;;;;;;31.57;23.17;;;;;;;;;;5068030;28;20225;-87
2022/12/12 01:00:40;;;;;;;31.87;21.20;;;;;;;;;;5086823;28;20202;-88
2022/12/12 01:03:08;;;;;;;27.87;17.87;;;;;;;;;;5067861;28;20242;-87
2022/12/12 01:05:37;;;;;;;26.87;18.83;;;;;;;;;;5053979;28;20254;-88
2022/12/12 01:08:05;;;;;;;30.43;26.57;;;;;;;;;;5074176;28;20327;-87
2022/12/12 01:10:34;;;;;;;24.97;17.43;;;;;;;;;;5075092;28;20205;-88
2022/12/12 01:13:04;;;;;;;20.97;15.73;;;;;;;;;;5062110;28;20197;-88
2022/12/12 01:15:32;;;;;;;28.87;19.17;;;;;;;;;;5078137;28;20196;-88
2022/12/12 01:18:01;;;;;;;29.00;22.00;;;;;;;;;;5096130;28;20238;-88
2022/12/12 01:20:29;;;;;;;30.83;19.90;;;;;;;;;;5096480;28;20203;-88
2022/12/12 01:22:57;;;;;;;32.50;24.37;;;;;;;;;;5095699;28;20209;-87
2022/12/12 01:25:26;;;;;;;33.97;26.27;;;;;;;;;;5077930;28;20193;-88
2022/12/12 01:27:54;;;;;;;30.13;21.00;;;;;;;;;;5092635;28;20214;-87
2022/12/12 01:30:24;;;;;;;29.93;22.50;;;;;;;;;;5069472;28;20197;-88
2022/12/12 01:32:53;;;;;;;20.57;14.13;;;;;;;;;;5083163;28;20251;-88
2022/12/12 01:35:22;;;;;;;34.80;24.00;;;;;;;;;;5078011;28;20201;-88
2022/12/12 01:37:51;;;;;;;24.73;17.37;;;;;;;;;;5078053;28;20311;-88
2022/12/12 01:40:21;;;;;;;21.67;13.03;;;;;;;;;;5078336;28;20258;-88
2022/12/12 01:42:50;;;;;;;13.77;10.27;;;;;;;;;;5065365;28;20204;-88
2022/12/12 01:45:36;;;;;;;26.13;17.03;;;;;;;;;;5095780;28;20213;-88
2022/12/12 01:48:06;;;;;;;18.57;12.43;;;;;;;;;;5063983;28;20190;-88
2022/12/12 01:50:35;;;;;;;27.20;18.87;;;;;;;;;;5077457;28;20230;-88
2022/12/12 01:53:03;;;;;;;23.60;16.33;;;;;;;;;;5077883;28;20201;-88
2022/12/12 01:55:31;;;;;;;15.33;11.60;;;;;;;;;;5077203;28;20205;-88
2022/12/12 01:58:00;;;;;;;21.43;11.17;;;;;;;;;;5077730;28;20274;-88
2022/12/12 02:00:28;;;;;;;20.30;14.47;;;;;;;;;;5095601;28;20192;-88
2022/12/12 02:02:57;;;;;;;20.17;13.60;;;;;;;;;;5095440;28;20233;-88
2022/12/12 02:05:28;;;;;;;18.13;11.73;;;;;;;;;;5064049;28;20222;-88
2022/12/12 02:07:57;;;;;;;20.67;14.73;;;;;;;;;;5077510;28;20255;-88
2022/12/12 02:10:26;;;;;;;29.90;23.70;;;;;;;;;;5077692;28;20193;-88
2022/12/12 02:12:58;;;;;;;28.60;19.67;;;;;;;;;;5077203;28;20194;-88
2022/12/12 02:15:28;;;;;;;30.50;22.23;;;;;;;;;;5095225;28;20236;-88
2022/12/12 02:18:03;;;;;;;16.40;9.17;;;;;;;;;;5064347;28;20210;-88
2022/12/12 02:20:41;;;;;;;28.43;16.23;;;;;;;;;;5077276;28;20235;-87
2022/12/12 02:23:27;;;;;;;29.07;19.27;;;;;;;;;;5077185;28;20226;-88
2022/12/12 02:26:20;;;;;;;16.93;10.23;;;;;;;;;;5076221;28;20210;-88
2022/12/12 02:29:06;;;;;;;3.53;3.13;;;;;;;;;;5095136;28;20232;-88
2022/12/12 02:31:41;;;;;;;2.57;2.43;;;;;;;;;;5069646;28;20270;-88
2022/12/12 02:34:14;;;;;;;13.17;9.03;;;;;;;;;;5072403;28;20194;-88
2022/12/12 02:36:46;;;;;;;24.90;16.70;;;;;;;;;;5094912;28;20205;-88
2022/12/12 02:39:19;;;;;;;28.93;14.30;;;;;;;;;;5076554;28;20271;-88
2022/12/12 02:41:51;;;;;;;11.17;8.77;;;;;;;;;;5077153;28;20197;-87
2022/12/12 02:44:23;;;;;;;18.60;9.63;;;;;;;;;;5076780;28;20259;-88
2022/12/12 02:46:56;;;;;;;12.87;9.50;;;;;;;;;;5074670;28;20202;-88
2022/12/12 02:49:27;;;;;;;2.03;1.93;;;;;;;;;;5081800;28;20189;-88
2022/12/12 02:51:57;;;;;;;6.13;4.20;;;;;;;;;;5076214;28;20221;-88
2022/12/12 02:54:25;;;;;;;1.87;1.77;;;;;;;;;;5077131;28;20247;-88
2022/12/12 02:56:55;;;;;;;5.47;3.43;;;;;;;;;;5092295;28;20206;-88
2022/12/12 02:59:25;;;;;;;3.23;2.90;;;;;;;;;;5083760;28;20234;-88
2022/12/12 03:02:12;;;;;;;2.93;2.70;;;;;;;;;;5076510;28;20198;-88
2022/12/12 03:07:48;;;;;;;29.43;19.20;;;;;;;;;;5081485;28;20203;-87
2022/12/12 03:10:21;;;;;;;23.47;13.23;;;;;;;;;;5076163;28;20209;-88
2022/12/12 03:12:51;;;;;;;16.40;14.13;;;;;;;;;;5083030;28;20252;-87
2022/12/12 03:15:22;;;;;;;25.60;17.30;;;;;;;;;;5076163;28;20223;-87
2022/12/12 03:17:55;;;;;;;26.07;18.10;;;;;;;;;;5075660;28;20204;-88
2022/12/12 03:20:26;;;;;;;24.67;14.23;;;;;;;;;;5076217;28;20189;-87
2022/12/12 03:22:56;;;;;;;22.43;16.83;;;;;;;;;;5080610;28;20224;-88
2022/12/12 03:25:27;;;;;;;27.47;21.20;;;;;;;;;;5076207;28;20223;-88
2022/12/12 03:27:59;;;;;;;24.90;18.53;;;;;;;;;;5080327;28;20189;-87
2022/12/12 03:30:29;;;;;;;29.70;21.53;;;;;;;;;;5075874;28;20220;-88
2022/12/12 03:33:00;;;;;;;26.43;20.63;;;;;;;;;;5075517;28;20283;-88
2022/12/12 03:35:34;;;;;;;6.73;5.60;;;;;;;;;;5075830;28;20267;-87
2022/12/12 03:38:05;;;;;;;8.10;7.27;;;;;;;;;;5063215;28;20225;-88
2022/12/12 03:40:38;;;;;;;6.30;3.53;;;;;;;;;;5075500;28;20247;-88
2022/12/12 03:43:09;;;;;;;30.50;22.30;;;;;;;;;;5075768;28;20206;-88
2022/12/12 03:45:39;;;;;;;29.67;20.80;;;;;;;;;;5072364;28;20194;-88
2022/12/12 03:48:11;;;;;;;28.03;20.70;;;;;;;;;;5062574;28;20201;-88
2022/12/12 03:50:45;;;;;;;23.37;16.07;;;;;;;;;;5076256;28;20206;-88
2022/12/12 03:53:18;;;;;;;28.47;18.70;;;;;;;;;;5075594;28;20205;-88
2022/12/12 03:55:48;;;;;;;28.63;20.03;;;;;;;;;;5075448;28;20197;-87
2022/12/12 03:58:19;;;;;;;29.50;20.33;;;;;;;;;;5075488;28;20254;-87
2022/12/12 04:00:49;;;;;;;25.27;16.77;;;;;;;;;;5073069;28;20193;-88
2022/12/12 04:03:20;;;;;;;20.10;14.60;;;;;;;;;;5075582;28;20193;-88
2022/12/12 04:12:57;;;;;;;38.47;26.37;;;;;;;;;;5059214;28;20250;-88
2022/12/12 04:14:19;;;;;;;7.07;6.10;;;;;;;;;;5092502;28;20194;-87
2022/12/12 04:16:51;;;;;;;7.80;5.37;;;;;;;;;;5075076;28;20195;-87
2022/12/12 04:23:14;;;;;;;24.07;16.30;;;;;;;;;;5075255;28;20314;-88
2022/12/12 04:25:05;;;;;;;32.60;22.27;;;;;;;;;;5074635;28;20205;-87
2022/12/12 04:27:36;;;;;;;22.07;16.87;;;;;;;;;;5055458;28;20212;-87
2022/12/12 04:30:06;;;;;;;30.20;20.17;;;;;;;;;;5087867;28;20217;-88
2022/12/12 04:32:36;;;;;;;31.10;23.03;;;;;;;;;;5093564;28;20194;-88
2022/12/12 04:35:06;;;;;;;40.57;28.83;;;;;;;;;;5061860;28;20222;-88
2022/12/12 04:37:38;;;;;;;37.67;28.10;;;;;;;;;;5075394;28;20212;-88
2022/12/12 04:40:08;;;;;;;35.73;25.77;;;;;;;;;;5074752;28;20244;-88
2022/12/12 04:42:38;;;;;;;24.30;18.10;;;;;;;;;;5064450;28;20229;-88
2022/12/12 04:45:09;;;;;;;35.60;25.73;;;;;;;;;;5068903;28;20194;-88
2022/12/12 04:47:39;;;;;;;26.13;15.97;;;;;;;;;;5067851;28;20219;-88
2022/12/12 04:50:09;;;;;;;38.37;30.47;;;;;;;;;;5071736;28;20204;-88
2022/12/12 04:52:40;;;;;;;43.00;29.87;;;;;;;;;;5072492;28;20270;-88
2022/12/12 04:55:10;;;;;;;27.00;19.00;;;;;;;;;;5079133;28;20200;-88
2022/12/12 04:57:42;;;;;;;48.07;31.13;;;;;;;;;;5078319;28;20257;-87
2022/12/12 05:00:12;;;;;;;25.20;17.17;;;;;;;;;;5078355;28;20266;-88
2022/12/12 05:02:42;;;;;;;17.67;10.80;;;;;;;;;;5078505;28;20211;-88
2022/12/12 05:05:13;;;;;;;36.37;26.47;;;;;;;;;;5078591;28;20270;-88
2022/12/12 05:07:45;;;;;;;42.20;28.33;;;;;;;;;;5065182;28;20207;-88
2022/12/12 05:10:14;;;;;;;31.00;23.50;;;;;;;;;;5078153;28;20202;-88
2022/12/12 05:12:43;;;;;;;16.47;12.43;;;;;;;;;;5078089;28;20253;-88
2022/12/12 05:15:12;;;;;;;22.33;15.73;;;;;;;;;;5066703;28;20248;-88
2022/12/12 05:17:42;;;;;;;35.63;18.90;;;;;;;;;;5078095;28;20200;-88
2022/12/12 05:20:11;;;;;;;30.93;22.57;;;;;;;;;;5078307;28;20213;-87
2022/12/12 05:22:39;;;;;;;37.77;26.47;;;;;;;;;;5078425;28;20307;-88
2022/12/12 05:25:10;;;;;;;44.10;29.67;;;;;;;;;;5078048;28;20205;-87
2022/12/12 05:27:38;;;;;;;23.83;16.83;;;;;;;;;;5083242;28;20231;-87
2022/12/12 05:30:08;;;;;;;42.43;29.13;;;;;;;;;;5065088;28;20275;-88
2022/12/12 05:32:36;;;;;;;12.23;10.27;;;;;;;;;;5078483;28;20221;-88
2022/12/12 05:35:05;;;;;;;42.67;29.53;;;;;;;;;;5065020;28;20216;-88
2022/12/12 05:37:33;;;;;;;44.87;33.43;;;;;;;;;;5096426;28;20201;-88
2022/12/12 05:40:02;;;;;;;40.10;31.67;;;;;;;;;;5095935;28;20209;-88
2022/12/12 05:42:32;;;;;;;42.40;30.57;;;;;;;;;;5067613;28;20205;-88
2022/12/12 05:45:00;;;;;;;47.73;33.63;;;;;;;;;;5062517;28;20254;-88
2022/12/12 05:47:29;;;;;;;42.40;23.73;;;;;;;;;;5095694;28;20204;-88
2022/12/12 05:49:57;;;;;;;44.07;31.73;;;;;;;;;;5077485;28;20274;-88
2022/12/12 05:52:26;;;;;;;31.60;21.93;;;;;;;;;;5085860;28;20204;-87
2022/12/12 05:54:54;;;;;;;43.60;30.10;;;;;;;;;;5095865;28;20203;-87
2022/12/12 05:57:23;;;;;;;48.90;32.63;;;;;;;;;;5091017;28;20205;-86
2022/12/12 05:59:53;;;;;;;42.43;31.50;;;;;;;;;;5090283;28;20208;-88
2022/12/12 06:02:25;;;;;;;50.33;35.13;;;;;;;;;;5091494;28;20209;-87
2022/12/12 06:04:57;;;;;;;48.50;33.40;;;;;;;;;;5093930;28;20239;-87
2022/12/12 06:07:26;;;;;;;39.07;27.80;;;;;;;;;;5109167;28;20201;-87
2022/12/12 06:09:57;;;;;;;47.53;35.17;;;;;;;;;;5090533;28;20228;-88
2022/12/12 06:12:26;;;;;;;44.57;33.70;;;;;;;;;;5089485;28;20193;-87
2022/12/12 06:14:56;;;;;;;51.53;31.73;;;;;;;;;;5099317;28;20205;-88
2022/12/12 06:17:25;;;;;;;50.67;38.53;;;;;;;;;;5089286;28;20193;-88
2022/12/12 06:20:00;;;;;;;50.80;35.80;;;;;;;;;;5107270;28;20212;-88
2022/12/12 06:22:29;;;;;;;49.30;38.07;;;;;;;;;;5104464;28;20246;-84
2022/12/12 06:24:57;;;;;;;52.53;38.77;;;;;;;;;;5087010;28;20218;-88
2022/12/12 06:27:26;;;;;;;42.10;31.77;;;;;;;;;;5105658;28;20232;-88
2022/12/12 06:29:56;;;;;;;33.63;20.20;;;;;;;;;;5103918;28;20200;-87
2022/12/12 06:32:24;;;;;;;36.67;30.10;;;;;;;;;;5065307;28;20228;-88
2022/12/12 06:34:52;;;;;;;50.07;37.57;;;;;;;;;;5074622;28;20215;-88
2022/12/12 06:37:21;;;;;;;43.33;29.77;;;;;;;;;;5087295;28;20197;-87
2022/12/12 06:39:49;;;;;;;54.40;41.87;;;;;;;;;;5071184;28;20250;-87
2022/12/12 06:42:18;;;;;;;57.23;40.07;;;;;;;;;;5065659;28;20225;-88
2022/12/12 06:44:47;;;;;;;52.73;36.30;;;;;;;;;;5080396;28;20227;-88
2022/12/12 06:47:16;;;;;;;56.27;42.37;;;;;;;;;;5075358;28;20193;-88
2022/12/12 06:49:45;;;;;;;59.07;39.53;;;;;;;;;;5074052;28;20208;-88
2022/12/12 06:52:13;;;;;;;66.00;51.03;;;;;;;;;;5095072;28;20200;-88
2022/12/12 06:54:42;;;;;;;53.37;34.03;;;;;;;;;;5094770;28;20185;-88
2022/12/12 06:57:10;;;;;;;58.37;43.50;;;;;;;;;;5076905;28;20197;-87
2022/12/12 06:59:38;;;;;;;50.17;33.47;;;;;;;;;;5094255;28;20254;-87
2022/12/12 07:02:07;;;;;;;29.50;19.10;;;;;;;;;;5064589;28;20220;-87
2022/12/12 07:04:36;;;;;;;50.10;33.33;;;;;;;;;;5074230;28;20266;-87
2022/12/12 07:07:05;;;;;;;59.13;48.60;;;;;;;;;;5084956;28;20208;-87
2022/12/12 07:09:33;;;;;;;37.00;27.77;;;;;;;;;;5093906;28;20316;-88
2022/12/12 07:12:02;;;;;;;50.67;33.97;;;;;;;;;;5075492;28;20224;-88
2022/12/12 07:14:30;;;;;;;58.10;41.10;;;;;;;;;;5075545;28;20197;-88
2022/12/12 07:16:59;;;;;;;43.67;28.37;;;;;;;;;;5064047;28;20201;-87
2022/12/12 07:19:27;;;;;;;56.90;40.50;;;;;;;;;;5094245;28;20221;-88
2022/12/12 07:21:57;;;;;;;61.27;46.07;;;;;;;;;;5075692;28;20221;-88
2022/12/12 07:24:28;;;;;;;63.27;40.33;;;;;;;;;;5094082;28;20452;-88
2022/12/12 07:26:57;;;;;;;51.70;35.00;;;;;;;;;;5075791;28;20201;-88
2022/12/12 07:29:25;;;;;;;59.90;40.77;;;;;;;;;;5075660;28;20189;-88
2022/12/12 07:31:53;;;;;;;57.03;39.63;;;;;;;;;;5075878;28;20201;-88
2022/12/12 07:34:22;;;;;;;23.47;14.90;;;;;;;;;;5075562;28;20473;-88
2022/12/12 07:36:50;;;;;;;56.53;38.20;;;;;;;;;;5075825;28;20471;-87
2022/12/12 07:39:20;;;;;;;61.20;42.93;;;;;;;;;;5075314;28;20483;-88
2022/12/12 07:41:48;;;;;;;59.60;41.77;;;;;;;;;;5093171;28;20475;-88
2022/12/12 07:44:17;;;;;;;49.10;33.37;;;;;;;;;;5075871;28;20465;-87
2022/12/12 07:46:45;;;;;;;44.00;28.47;;;;;;;;;;5075473;28;20439;-88
2022/12/12 07:49:14;;;;;;;39.73;27.43;;;;;;;;;;5076035;28;20447;-84
2022/12/12 07:51:42;;;;;;;49.43;34.03;;;;;;;;;;5075272;28;20435;-88
2022/12/12 07:54:16;;;;;;;50.10;30.87;;;;;;;;;;5075383;28;20249;-87
2022/12/12 07:56:46;;;;;;;47.27;33.37;;;;;;;;;;5075492;28;20454;-87
2022/12/12 07:59:14;;;;;;;58.80;37.93;;;;;;;;;;5093801;28;20439;-87
2022/12/12 08:01:43;;;;;;;48.33;29.23;;;;;;;;;;5075866;28;20280;-88
2022/12/12 08:04:12;;;;;;;54.20;33.80;;;;;;;;;;5085644;28;20224;-88
2022/12/12 08:06:40;;;;;;;51.40;36.47;;;;;;;;;;5064963;28;20545;-88
2022/12/12 08:09:09;;;;;;;54.37;36.27;;;;;;;;;;5062277;28;20462;-88
2022/12/12 08:11:39;;;;;;;52.50;33.53;;;;;;;;;;5065646;28;20475;-88
2022/12/12 08:14:15;;;;;;;54.97;34.00;;;;;;;;;;5074029;28;20441;-87
2022/12/12 08:16:43;;;;;;;47.50;32.03;;;;;;;;;;5074770;28;20508;-89
2022/12/12 08:19:14;;;;;;;50.40;32.50;;;;;;;;;;5075448;28;20462;-88
2022/12/12 08:21:43;;;;;;;52.63;35.83;;;;;;;;;;5075490;28;20244;-88
2022/12/12 08:24:12;;;;;;;46.47;32.87;;;;;;;;;;5061671;28;20200;-89
2022/12/12 08:26:41;;;;;;;53.27;35.03;;;;;;;;;;5075156;28;20203;-88
2022/12/12 08:29:10;;;;;;;59.77;38.93;;;;;;;;;;5063092;28;20450;-89
2022/12/12 08:31:40;;;;;;;54.40;39.50;;;;;;;;;;5074982;28;20435;-88
2022/12/12 08:34:09;;;;;;;60.17;44.13;;;;;;;;;;5075276;28;20208;-88
2022/12/12 08:36:38;;;;;;;58.03;42.87;;;;;;;;;;5075170;28;20196;-89
2022/12/12 08:39:08;;;;;;;48.50;33.57;;;;;;;;;;5074727;28;20541;-89
2022/12/12 08:41:38;;;;;;;44.03;28.17;;;;;;;;;;5072672;28;20216;-89
2022/12/12 08:44:07;;;;;;;61.17;38.40;;;;;;;;;;5066118;28;20435;-88
2022/12/12 08:46:35;;;;;;;53.23;37.63;;;;;;;;;;5074064;28;20196;-88
2022/12/12 08:49:06;;;;;;;51.40;37.93;;;;;;;;;;5075594;28;20447;-89
2022/12/12 08:51:35;;;;;;;54.33;34.63;;;;;;;;;;5074794;28;20211;-88
2022/12/12 08:54:03;;;;;;;55.47;38.30;;;;;;;;;;5075204;28;20537;-89
2022/12/12 08:56:35;;;;;;;45.70;31.90;;;;;;;;;;5075254;28;20497;-89
2022/12/12 08:59:04;;;;;;;45.67;35.10;;;;;;;;;;5075337;28;20451;-88
2022/12/12 09:01:33;;;;;;;49.00;34.47;;;;;;;;;;5060200;28;20228;-88
2022/12/12 09:04:01;;;;;;;53.03;33.87;;;;;;;;;;5069184;28;20530;-89
2022/12/12 09:06:31;;;;;;;41.47;28.10;;;;;;;;;;5067440;28;20197;-88
2022/12/12 09:09:00;;;;;;;51.70;33.93;;;;;;;;;;5069035;28;20232;-88
2022/12/12 09:11:29;;;;;;;51.70;33.47;;;;;;;;;;5082009;28;20216;-87
2022/12/12 09:13:58;;;;;;;48.07;31.97;;;;;;;;;;5072351;28;20533;-89
2022/12/12 09:16:28;;;;;;;42.67;30.07;;;;;;;;;;5056775;28;20458;-89
2022/12/12 09:18:57;;;;;;;44.60;30.37;;;;;;;;;;5058051;28;20201;-89
2022/12/12 09:21:26;;;;;;;44.07;24.87;;;;;;;;;;5075256;28;20466;-88
2022/12/12 09:23:56;;;;;;;12.30;8.93;;;;;;;;;;5074748;28;20200;-88
2022/12/12 09:26:24;;;;;;;17.33;11.47;;;;;;;;;;5074837;28;20215;-88
2022/12/12 09:28:53;;;;;;;38.13;26.67;;;;;;;;;;5061794;28;20201;-89
2022/12/12 09:31:21;;;;;;;35.67;24.10;;;;;;;;;;5074156;28;20238;-89
2022/12/12 09:33:50;;;;;;;27.53;19.23;;;;;;;;;;5074530;28;20204;-89
2022/12/12 09:36:19;;;;;;;15.53;10.50;;;;;;;;;;5076194;28;20198;-90
2022/12/12 09:38:48;;;;;;;34.70;25.53;;;;;;;;;;5065536;28;20296;-91
2022/12/12 09:41:19;;;;;;;14.60;9.93;;;;;;;;;;5078360;28;20204;-89
2022/12/12 09:43:55;;;;;;;36.80;24.80;;;;;;;;;;5078643;28;20447;-91
2022/12/12 09:46:36;;;;;;;32.30;19.23;;;;;;;;;;5078483;28;20222;-90
2022/12/12 09:49:12;;;;;;;38.50;22.90;;;;;;;;;;5078345;28;20292;-89
2022/12/12 09:51:42;;;;;;;34.57;24.80;;;;;;;;;;5078377;28;20200;-89
2022/12/12 09:54:13;;;;;;;26.43;18.33;;;;;;;;;;5078626;28;20212;-89
2022/12/12 09:56:48;;;;;;;33.77;23.70;;;;;;;;;;5078064;28;20523;-88
2022/12/12 09:59:20;;;;;;;33.90;24.13;;;;;;;;;;5064978;28;20205;-88
2022/12/12 10:01:53;;;;;;;27.30;18.67;;;;;;;;;;5077794;28;20201;-89
2022/12/12 10:04:29;;;;;;;35.73;25.43;;;;;;;;;;5078078;28;20467;-90
2022/12/12 10:07:00;;;;;;;14.40;9.40;;;;;;;;;;5078077;28;20236;-89
2022/12/12 10:09:56;;;;;;;18.03;9.93;;;;;;;;;;5078267;28;20482;-90
2022/12/12 10:12:34;;;;;;;19.90;12.67;;;;;;;;;;5078215;28;20197;-89
2022/12/12 10:15:03;;;;;;;5.33;4.80;;;;;;;;;;5066313;28;20263;-89
2022/12/12 10:17:35;;;;;;;22.90;12.17;;;;;;;;;;5076275;28;20224;-89
2022/12/12 10:20:05;;;;;;;13.33;10.53;;;;;;;;;;5077499;28;20201;-89
2022/12/12 10:22:40;;;;;;;12.23;10.43;;;;;;;;;;5076886;28;20246;-89
2022/12/12 10:25:18;;;;;;;14.27;10.33;;;;;;;;;;5076440;28;20224;-89
2022/12/12 10:27:48;;;;;;;19.77;14.10;;;;;;;;;;5077474;28;20197;-89
2022/12/12 10:30:20;;;;;;;38.03;27.57;;;;;;;;;;5074848;28;20202;-89
2022/12/12 10:33:07;;;;;;;34.10;25.47;;;;;;;;;;5057716;28;20198;-89
2022/12/12 10:35:42;;;;;;;21.50;16.73;;;;;;;;;;5077023;28;20205;-89
2022/12/12 10:38:19;;;;;;;29.63;22.77;;;;;;;;;;5078975;28;20196;-91
2022/12/12 10:40:54;;;;;;;34.63;25.90;;;;;;;;;;5078811;28;20228;-90
2022/12/12 10:43:26;;;;;;;38.03;25.80;;;;;;;;;;5077583;28;20291;-90
2022/12/12 10:46:08;;;;;;;30.63;22.17;;;;;;;;;;5077869;28;20279;-90
2022/12/12 10:48:37;;;;;;;30.90;23.67;;;;;;;;;;5064460;28;20208;-89
2022/12/12 10:51:07;;;;;;;17.83;13.00;;;;;;;;;;5077651;28;20204;-90
2022/12/12 10:53:36;;;;;;;20.20;13.23;;;;;;;;;;5066587;28;20204;-91
2022/12/12 10:56:07;;;;;;;29.80;21.00;;;;;;;;;;5077718;28;20255;-90
2022/12/12 10:58:38;;;;;;;31.50;19.13;;;;;;;;;;5068706;28;20229;-90
2022/12/12 11:01:12;;;;;;;27.40;19.47;;;;;;;;;;5070576;28;20201;-91
2022/12/12 11:03:46;;;;;;;26.07;18.27;;;;;;;;;;5058744;28;20225;-90
2022/12/12 11:06:19;;;;;;;4.13;3.10;;;;;;;;;;5077325;28;20199;-91
2022/12/12 11:09:06;;;;;;;8.40;5.97;;;;;;;;;;5078997;28;20236;-90
2022/12/12 11:11:38;;;;;;;3.97;2.37;;;;;;;;;;5059086;28;20205;-89
2022/12/12 11:14:22;;;;;;;10.70;9.37;;;;;;;;;;5077045;28;20189;-89
2022/12/12 11:16:51;;;;;;;17.50;11.53;;;;;;;;;;5068003;28;20212;-90
2022/12/12 11:19:21;;;;;;;28.37;19.83;;;;;;;;;;5079894;28;20197;-90
2022/12/12 11:21:50;;;;;;;14.20;12.40;;;;;;;;;;5079022;28;20198;-89
2022/12/12 11:24:20;;;;;;;7.30;6.80;;;;;;;;;;5068350;28;20277;-90
2022/12/12 11:26:54;;;;;;;4.77;4.17;;;;;;;;;;5079296;28;20196;-89
2022/12/12 11:29:47;;;;;;;9.03;5.37;;;;;;;;;;5080505;28;20204;-90
2022/12/12 11:32:17;;;;;;;25.13;18.97;;;;;;;;;;5073519;28;20209;-90
2022/12/12 11:34:51;;;;;;;25.87;15.80;;;;;;;;;;5060740;28;20198;-90
2022/12/12 11:37:32;;;;;;;20.07;12.63;;;;;;;;;;5068496;28;20197;-89
2022/12/12 11:40:33;;;;;;;28.40;21.47;;;;;;;;;;5066863;28;20196;-89
2022/12/12 11:43:25;;;;;;;23.30;16.40;;;;;;;;;;5078463;28;20214;-89
2022/12/12 11:46:03;;;;;;;24.67;14.37;;;;;;;;;;5079484;28;20213;-89
2022/12/12 11:49:09;;;;;;;19.93;12.90;;;;;;;;;;5079575;28;20202;-89
2022/12/12 11:52:02;;;;;;;23.53;18.70;;;;;;;;;;5079531;28;20209;-90
2022/12/12 11:54:59;;;;;;;;;;;;;;;;;;;;;
2022/12/12 12:00:53;;;;;;;18.20;13.23;;;;;;;;;;5068698;28;20284;-90
2022/12/12 12:03:41;;;;;;;26.17;20.47;;;;;;;;;;5079635;28;20214;-88
2022/12/12 12:06:23;;;;;;;22.67;16.37;;;;;;;;;;5079322;28;20201;-90
2022/12/12 12:09:09;;;;;;;22.10;17.20;;;;;;;;;;5065044;28;20240;-90
2022/12/12 12:11:45;;;;;;;17.23;11.50;;;;;;;;;;5079043;28;20200;-90
2022/12/12 12:14:23;;;;;;;6.27;5.57;;;;;;;;;;5079820;28;20193;-89
2022/12/12 12:16:57;;;;;;;24.23;20.13;;;;;;;;;;5079356;28;20242;-90
2022/12/12 12:19:32;;;;;;;22.17;18.23;;;;;;;;;;5067114;28;20201;-90
2022/12/12 12:22:05;;;;;;;20.63;16.93;;;;;;;;;;5066597;28;20198;-90
2022/12/12 12:24:54;;;;;;;25.63;20.93;;;;;;;;;;5069986;28;20247;-90
2022/12/12 12:27:27;;;;;;;16.87;12.20;;;;;;;;;;5073982;28;20214;-90
2022/12/12 12:30:15;;;;;;;25.40;20.80;;;;;;;;;;5066382;28;20250;-89
2022/12/12 12:32:51;;;;;;;28.00;22.30;;;;;;;;;;5068435;28;20217;-90
2022/12/12 12:39:46;;;;;;;22.43;18.23;;;;;;;;;;5065241;28;20211;-89
2022/12/12 12:42:37;;;;;;;16.30;13.30;;;;;;;;;;5073477;28;20204;-88
2022/12/12 12:45:17;;;;;;;20.90;15.80;;;;;;;;;;5075713;28;20185;-90
2022/12/12 12:47:47;;;;;;;24.00;17.60;;;;;;;;;;5075607;28;20203;-88
2022/12/12 12:50:18;;;;;;;23.70;18.43;;;;;;;;;;5068343;28;20215;-90
2022/12/12 12:52:50;;;;;;;26.07;17.77;;;;;;;;;;5070367;28;20208;-91
2022/12/12 12:55:24;;;;;;;15.87;11.37;;;;;;;;;;5076030;28;20201;-90
2022/12/12 12:57:53;;;;;;;20.27;15.67;;;;;;;;;;5059295;28;20233;-90
2022/12/12 13:00:23;;;;;;;20.10;13.57;;;;;;;;;;5065955;28;20249;-88
2022/12/12 13:03:11;;;;;;;20.40;15.30;;;;;;;;;;5075253;28;20200;-90
2022/12/12 13:09:10;;;;;;;19.10;15.23;;;;;;;;;;5060511;28;20248;-90
2022/12/12 13:15:34;;;;;;;24.87;18.53;;;;;;;;;;5026588;28;20217;-90
2022/12/12 13:18:31;;;;;;;25.40;16.80;;;;;;;;;;5070045;28;20256;-90
2022/12/12 13:21:46;;;;;;;25.33;18.50;;;;;;;;;;5068982;28;20204;-90
2022/12/12 13:24:38;;;;;;;17.17;12.27;;;;;;;;;;5030836;28;20287;-90
2022/12/12 13:28:09;;;;;;;28.00;18.10;;;;;;;;;;5067957;28;20215;-90
2022/12/12 13:31:18;;;;;;;0.97;0.97;;;;;;;;;;5079306;28;20210;-90
2022/12/12 13:34:10;;;;;;;12.87;9.20;;;;;;;;;;5071851;28;20211;-89
2022/12/12 13:37:40;;;;;;;18.07;11.13;;;;;;;;;;5078235;28;20200;-90
2022/12/12 13:41:03;;;;;;;13.47;10.10;;;;;;;;;;5065397;28;20204;-90
2022/12/12 13:43:52;;;;;;;20.93;15.93;;;;;;;;;;5066519;28;20245;-90
2022/12/12 13:46:43;;;;;;;1.53;1.53;;;;;;;;;;5077703;28;20221;-90
2022/12/12 13:49:18;;;;;;;14.10;11.10;;;;;;;;;;5065933;28;20216;-89
2022/12/12 13:52:17;;;;;;;15.40;11.00;;;;;;;;;;5077640;28;20206;-89
2022/12/12 13:55:26;;;;;;;18.23;14.90;;;;;;;;;;5071193;28;20203;-89
2022/12/12 13:58:24;;;;;;;14.87;11.63;;;;;;;;;;5075046;28;20255;-89
2022/12/12 14:01:29;;;;;;;7.30;5.87;;;;;;;;;;5064685;28;20271;-89
2022/12/12 14:04:45;;;;;;;;;;;;;;;;;;;;;
2022/12/12 14:07:24;;;;;;;12.60;8.10;;;;;;;;;;5079822;28;20269;-89
2022/12/12 14:09:54;;;;;;;18.83;11.47;;;;;;;;;;5070300;28;20333;-88
2022/12/12 14:12:24;;;;;;;2.90;2.70;;;;;;;;;;5062651;28;20202;-89
2022/12/12 14:15:01;;;;;;;15.60;10.33;;;;;;;;;;5067407;28;20194;-89
2022/12/12 14:17:32;;;;;;;21.03;17.97;;;;;;;;;;5071518;28;20221;-89
2022/12/12 14:20:23;;;;;;;23.80;19.07;;;;;;;;;;5070981;28;20197;-87
2022/12/12 14:23:11;;;;;;;25.07;17.70;;;;;;;;;;5067937;28;20216;-89
2022/12/12 14:25:41;;;;;;;18.13;14.23;;;;;;;;;;5063003;28;20213;-89
2022/12/12 14:28:17;;;;;;;11.20;7.03;;;;;;;;;;5077883;28;20202;-89
2022/12/12 14:30:47;;;;;;;15.17;9.03;;;;;;;;;;5064654;28;20201;-89
2022/12/12 14:33:37;;;;;;;18.90;12.10;;;;;;;;;;5077095;28;20272;-89
2022/12/12 14:36:08;;;;;;;20.27;15.23;;;;;;;;;;5060456;28;20236;-89
2022/12/12 14:38:43;;;;;;;11.97;8.47;;;;;;;;;;5072155;28;20226;-89
2022/12/12 14:41:15;;;;;;;16.83;11.87;;;;;;;;;;5058707;28;20205;-88
2022/12/12 14:43:47;;;;;;;17.37;13.47;;;;;;;;;;5058262;28;20229;-88
2022/12/12 14:46:41;;;;;;;7.60;6.67;;;;;;;;;;5063223;28;20201;-89
2022/12/12 14:49:13;;;;;;;13.47;10.23;;;;;;;;;;5077067;28;20200;-89
2022/12/12 14:51:43;;;;;;;22.70;16.60;;;;;;;;;;5070102;28;20259;-88
2022/12/12 14:54:16;;;;;;;22.87;14.70;;;;;;;;;;5071552;28;20195;-88
2022/12/12 14:56:45;;;;;;;14.63;6.13;;;;;;;;;;5082314;28;20240;-88
2022/12/12 14:59:22;;;;;;;20.80;13.57;;;;;;;;;;5063123;28;20209;-89
2022/12/12 15:01:51;;;;;;;11.83;8.90;;;;;;;;;;5067411;28;20198;-88
2022/12/12 15:04:21;;;;;;;15.40;9.77;;;;;;;;;;5076473;28;20275;-88
2022/12/12 15:06:51;;;;;;;24.63;19.27;;;;;;;;;;5076977;28;20233;-88
2022/12/12 15:09:24;;;;;;;25.97;20.50;;;;;;;;;;5074840;28;20286;-88
2022/12/12 15:12:00;;;;;;;21.93;16.23;;;;;;;;;;5076537;28;20238;-89
2022/12/12 15:14:48;;;;;;;;;;;;;;;;;;;;;
2022/12/12 15:17:31;;;;;;;14.30;10.97;;;;;;;;;;5068394;28;20232;-86
2022/12/12 15:20:19;;;;;;;21.67;13.17;;;;;;;;;;5072082;28;20233;-89
2022/12/12 15:23:24;;;;;;;18.83;11.83;;;;;;;;;;5090774;28;20203;-88
2022/12/12 15:26:34;;;;;;;6.53;3.00;;;;;;;;;;5064965;28;20210;-89
2022/12/12 15:30:28;;;;;;;4.70;2.47;;;;;;;;;;5014873;28;20231;-90